sensor_id;sensor_type;location;lat;lon;timestamp;P1;durP1;ratioP1;P2;durP2;ratioP2
16626;SDS011;8427;52.204;7.202;2024-02-21T00:01:25;23.75;;;9.45;;
16626;SDS011;8427;52.204;7.202;2024-02-21T00:03:55;28.52;;;10.00;;
16626;SDS011;8427;52.204;7.202;2024-02-21T00:06:23;27.60;;;9.73;;
16626;SDS011;8427;52.204;7.202;2024-02-21T00:11:21;27.27;;;9.83;;
16626;SDS011;8427;52.204;7.202;2024-02-21T00:13:50;30.40;;;9.98;;
16626;SDS011;8427;52.204;7.202;2024-02-21T00:16:19;28.95;;;9.55;;
16626;SDS011;8427;52.204;7.202;2024-02-21T00:18:49;29.75;;;10.02;;
16626;SDS011;8427;52.204;7.202;2024-02-21T00:21:18;28.33;;;9.77;;
16626;SDS011;8427;52.204;7.202;2024-02-21T00:23:47;26.00;;;9.57;;
16626;SDS011;8427;52.204;7.202;2024-02-21T00:26:17;24.85;;;8.85;;
16626;SDS011;8427;52.204;7.202;2024-02-21T00:28:49;26.13;;;9.60;;
16626;SDS011;8427;52.204;7.202;2024-02-21T00:31:18;27.02;;;10.30;;
16626;SDS011;8427;52.204;7.202;2024-02-21T00:33:47;24.58;;;9.93;;
16626;SDS011;8427;52.204;7.202;2024-02-21T00:36:17;27.88;;;10.10;;
16626;SDS011;8427;52.204;7.202;2024-02-21T00:38:46;23.33;;;8.98;;
16626;SDS011;8427;52.204;7.202;2024-02-21T00:41:14;26.97;;;9.63;;
16626;SDS011;8427;52.204;7.202;2024-02-21T00:43:43;27.50;;;9.38;;
16626;SDS011;8427;52.204;7.202;2024-02-21T00:46:12;27.92;;;9.02;;
16626;SDS011;8427;52.204;7.202;2024-02-21T00:48:41;26.10;;;9.32;;
16626;SDS011;8427;52.204;7.202;2024-02-21T00:51:10;23.00;;;10.07;;
16626;SDS011;8427;52.204;7.202;2024-02-21T00:53:40;25.80;;;9.25;;
16626;SDS011;8427;52.204;7.202;2024-02-21T00:56:10;22.73;;;8.38;;
16626;SDS011;8427;52.204;7.202;2024-02-21T00:58:39;29.48;;;9.60;;
16626;SDS011;8427;52.204;7.202;2024-02-21T01:01:07;27.65;;;8.90;;
16626;SDS011;8427;52.204;7.202;2024-02-21T01:03:39;25.08;;;9.27;;
16626;SDS011;8427;52.204;7.202;2024-02-21T01:06:07;23.52;;;9.27;;
16626;SDS011;8427;52.204;7.202;2024-02-21T01:08:36;28.15;;;9.75;;
16626;SDS011;8427;52.204;7.202;2024-02-21T01:11:06;26.30;;;9.30;;
16626;SDS011;8427;52.204;7.202;2024-02-21T01:13:35;23.88;;;8.70;;
16626;SDS011;8427;52.204;7.202;2024-02-21T01:16:04;23.00;;;9.27;;
16626;SDS011;8427;52.204;7.202;2024-02-21T01:18:34;24.40;;;9.38;;
16626;SDS011;8427;52.204;7.202;2024-02-21T01:21:05;26.70;;;9.23;;
16626;SDS011;8427;52.204;7.202;2024-02-21T01:23:35;24.45;;;9.10;;
16626;SDS011;8427;52.204;7.202;2024-02-21T01:26:04;25.70;;;9.10;;
16626;SDS011;8427;52.204;7.202;2024-02-21T01:28:36;25.63;;;9.40;;
16626;SDS011;8427;52.204;7.202;2024-02-21T01:31:05;25.75;;;9.43;;
16626;SDS011;8427;52.204;7.202;2024-02-21T01:33:34;29.58;;;9.00;;
16626;SDS011;8427;52.204;7.202;2024-02-21T01:36:03;20.42;;;8.32;;
16626;SDS011;8427;52.204;7.202;2024-02-21T01:38:34;24.80;;;8.20;;
16626;SDS011;8427;52.204;7.202;2024-02-21T01:41:03;20.33;;;8.38;;
16626;SDS011;8427;52.204;7.202;2024-02-21T01:43:31;23.77;;;8.50;;
16626;SDS011;8427;52.204;7.202;2024-02-21T01:46:04;27.17;;;8.93;;
16626;SDS011;8427;52.204;7.202;2024-02-21T01:48:34;26.55;;;9.00;;
16626;SDS011;8427;52.204;7.202;2024-02-21T01:51:04;24.92;;;9.32;;
16626;SDS011;8427;52.204;7.202;2024-02-21T01:53:34;26.20;;;9.00;;
16626;SDS011;8427;52.204;7.202;2024-02-21T01:56:05;22.77;;;9.30;;
16626;SDS011;8427;52.204;7.202;2024-02-21T01:58:36;23.58;;;8.50;;
16626;SDS011;8427;52.204;7.202;2024-02-21T02:01:08;22.30;;;8.90;;
16626;SDS011;8427;52.204;7.202;2024-02-21T02:03:38;21.55;;;8.13;;
16626;SDS011;8427;52.204;7.202;2024-02-21T02:08:36;24.85;;;8.60;;
16626;SDS011;8427;52.204;7.202;2024-02-21T02:13:34;23.90;;;8.68;;
16626;SDS011;8427;52.204;7.202;2024-02-21T02:16:04;25.35;;;8.50;;
16626;SDS011;8427;52.204;7.202;2024-02-21T02:18:34;20.70;;;8.95;;
16626;SDS011;8427;52.204;7.202;2024-02-21T02:21:04;24.52;;;8.82;;
16626;SDS011;8427;52.204;7.202;2024-02-21T02:23:38;27.17;;;9.13;;
16626;SDS011;8427;52.204;7.202;2024-02-21T02:26:07;28.88;;;9.98;;
16626;SDS011;8427;52.204;7.202;2024-02-21T02:28:35;18.53;;;8.70;;
16626;SDS011;8427;52.204;7.202;2024-02-21T02:31:04;23.67;;;9.15;;
16626;SDS011;8427;52.204;7.202;2024-02-21T02:36:02;24.70;;;9.43;;
16626;SDS011;8427;52.204;7.202;2024-02-21T02:41:01;23.05;;;8.23;;
16626;SDS011;8427;52.204;7.202;2024-02-21T02:43:31;27.45;;;9.15;;
16626;SDS011;8427;52.204;7.202;2024-02-21T02:45:59;29.85;;;9.13;;
16626;SDS011;8427;52.204;7.202;2024-02-21T02:48:28;24.20;;;9.20;;
16626;SDS011;8427;52.204;7.202;2024-02-21T02:50:57;23.65;;;8.77;;
16626;SDS011;8427;52.204;7.202;2024-02-21T02:53:26;26.48;;;8.88;;
16626;SDS011;8427;52.204;7.202;2024-02-21T02:55:54;22.43;;;8.70;;
16626;SDS011;8427;52.204;7.202;2024-02-21T02:58:24;24.08;;;8.43;;
16626;SDS011;8427;52.204;7.202;2024-02-21T03:00:53;24.02;;;9.30;;
16626;SDS011;8427;52.204;7.202;2024-02-21T03:03:22;22.10;;;9.15;;
16626;SDS011;8427;52.204;7.202;2024-02-21T03:05:51;23.90;;;8.88;;
16626;SDS011;8427;52.204;7.202;2024-02-21T03:08:19;27.30;;;8.95;;
16626;SDS011;8427;52.204;7.202;2024-02-21T03:10:49;27.83;;;8.45;;
16626;SDS011;8427;52.204;7.202;2024-02-21T03:13:18;19.63;;;8.57;;
16626;SDS011;8427;52.204;7.202;2024-02-21T03:15:48;26.40;;;9.07;;
16626;SDS011;8427;52.204;7.202;2024-02-21T03:18:17;28.52;;;9.18;;
16626;SDS011;8427;52.204;7.202;2024-02-21T03:20:46;23.48;;;9.13;;
16626;SDS011;8427;52.204;7.202;2024-02-21T03:23:14;23.80;;;8.47;;
16626;SDS011;8427;52.204;7.202;2024-02-21T03:25:43;26.05;;;9.15;;
16626;SDS011;8427;52.204;7.202;2024-02-21T03:28:12;22.23;;;9.38;;
16626;SDS011;8427;52.204;7.202;2024-02-21T03:30:40;20.80;;;8.27;;
16626;SDS011;8427;52.204;7.202;2024-02-21T03:33:11;28.35;;;8.93;;
16626;SDS011;8427;52.204;7.202;2024-02-21T03:35:39;26.95;;;9.27;;
16626;SDS011;8427;52.204;7.202;2024-02-21T03:38:08;21.60;;;8.63;;
16626;SDS011;8427;52.204;7.202;2024-02-21T03:40:37;27.20;;;8.65;;
16626;SDS011;8427;52.204;7.202;2024-02-21T03:43:06;19.83;;;8.60;;
16626;SDS011;8427;52.204;7.202;2024-02-21T03:45:35;23.87;;;9.37;;
16626;SDS011;8427;52.204;7.202;2024-02-21T03:48:04;24.73;;;8.70;;
16626;SDS011;8427;52.204;7.202;2024-02-21T03:50:35;24.02;;;8.43;;
16626;SDS011;8427;52.204;7.202;2024-02-21T03:53:04;22.75;;;9.18;;
16626;SDS011;8427;52.204;7.202;2024-02-21T03:55:33;25.77;;;9.02;;
16626;SDS011;8427;52.204;7.202;2024-02-21T03:58:02;31.45;;;9.75;;
16626;SDS011;8427;52.204;7.202;2024-02-21T04:00:31;21.27;;;9.27;;
16626;SDS011;8427;52.204;7.202;2024-02-21T04:03:00;29.70;;;9.10;;
16626;SDS011;8427;52.204;7.202;2024-02-21T04:05:29;27.65;;;9.70;;
16626;SDS011;8427;52.204;7.202;2024-02-21T04:08:00;28.23;;;9.38;;
16626;SDS011;8427;52.204;7.202;2024-02-21T04:10:32;23.38;;;9.65;;
16626;SDS011;8427;52.204;7.202;2024-02-21T04:13:02;24.85;;;10.07;;
16626;SDS011;8427;52.204;7.202;2024-02-21T04:15:32;29.83;;;10.38;;
16626;SDS011;8427;52.204;7.202;2024-02-21T04:18:01;20.50;;;8.93;;
16626;SDS011;8427;52.204;7.202;2024-02-21T04:20:30;30.85;;;10.18;;
16626;SDS011;8427;52.204;7.202;2024-02-21T04:23:01;21.58;;;9.13;;
16626;SDS011;8427;52.204;7.202;2024-02-21T04:25:29;25.23;;;9.65;;
16626;SDS011;8427;52.204;7.202;2024-02-21T04:27:58;27.48;;;9.82;;
16626;SDS011;8427;52.204;7.202;2024-02-21T04:30:27;27.45;;;9.43;;
16626;SDS011;8427;52.204;7.202;2024-02-21T04:32:56;24.35;;;8.82;;
16626;SDS011;8427;52.204;7.202;2024-02-21T04:35:25;29.42;;;9.40;;
16626;SDS011;8427;52.204;7.202;2024-02-21T04:37:54;24.23;;;8.32;;
16626;SDS011;8427;52.204;7.202;2024-02-21T04:40:25;21.60;;;8.68;;
16626;SDS011;8427;52.204;7.202;2024-02-21T04:42:54;27.95;;;9.15;;
16626;SDS011;8427;52.204;7.202;2024-02-21T04:45:23;24.45;;;9.18;;
16626;SDS011;8427;52.204;7.202;2024-02-21T04:47:51;23.38;;;8.60;;
16626;SDS011;8427;52.204;7.202;2024-02-21T04:50:20;25.33;;;9.18;;
16626;SDS011;8427;52.204;7.202;2024-02-21T04:52:49;24.83;;;8.63;;
16626;SDS011;8427;52.204;7.202;2024-02-21T04:55:17;26.70;;;9.13;;
16626;SDS011;8427;52.204;7.202;2024-02-21T04:57:48;23.63;;;8.82;;
16626;SDS011;8427;52.204;7.202;2024-02-21T05:00:17;23.30;;;8.38;;
16626;SDS011;8427;52.204;7.202;2024-02-21T05:02:46;22.60;;;8.23;;
16626;SDS011;8427;52.204;7.202;2024-02-21T05:05:15;22.00;;;8.27;;
16626;SDS011;8427;52.204;7.202;2024-02-21T05:07:44;20.65;;;8.68;;
16626;SDS011;8427;52.204;7.202;2024-02-21T05:10:12;23.38;;;7.82;;
16626;SDS011;8427;52.204;7.202;2024-02-21T05:12:41;21.05;;;8.05;;
16626;SDS011;8427;52.204;7.202;2024-02-21T05:15:11;21.65;;;7.32;;
16626;SDS011;8427;52.204;7.202;2024-02-21T05:17:40;25.08;;;7.63;;
16626;SDS011;8427;52.204;7.202;2024-02-21T05:20:10;20.13;;;8.18;;
16626;SDS011;8427;52.204;7.202;2024-02-21T05:25:08;22.87;;;7.17;;
16626;SDS011;8427;52.204;7.202;2024-02-21T05:27:37;16.35;;;6.88;;
16626;SDS011;8427;52.204;7.202;2024-02-21T05:30:06;19.25;;;7.03;;
16626;SDS011;8427;52.204;7.202;2024-02-21T05:32:38;21.50;;;7.15;;
16626;SDS011;8427;52.204;7.202;2024-02-21T05:35:07;22.60;;;7.15;;
16626;SDS011;8427;52.204;7.202;2024-02-21T05:37:36;19.13;;;7.35;;
16626;SDS011;8427;52.204;7.202;2024-02-21T05:40:05;19.33;;;6.93;;
16626;SDS011;8427;52.204;7.202;2024-02-21T05:42:35;21.80;;;7.47;;
16626;SDS011;8427;52.204;7.202;2024-02-21T05:45:04;22.58;;;7.03;;
16626;SDS011;8427;52.204;7.202;2024-02-21T05:47:33;20.40;;;7.43;;
16626;SDS011;8427;52.204;7.202;2024-02-21T05:50:03;19.17;;;6.55;;
16626;SDS011;8427;52.204;7.202;2024-02-21T05:52:33;18.60;;;6.88;;
16626;SDS011;8427;52.204;7.202;2024-02-21T05:55:02;19.35;;;7.07;;
16626;SDS011;8427;52.204;7.202;2024-02-21T05:57:31;16.15;;;6.15;;
16626;SDS011;8427;52.204;7.202;2024-02-21T05:59:59;22.33;;;6.68;;
16626;SDS011;8427;52.204;7.202;2024-02-21T06:04:56;16.63;;;6.53;;
16626;SDS011;8427;52.204;7.202;2024-02-21T06:07:27;23.75;;;7.28;;
16626;SDS011;8427;52.204;7.202;2024-02-21T06:09:56;20.65;;;6.93;;
16626;SDS011;8427;52.204;7.202;2024-02-21T06:12:24;17.13;;;6.82;;
16626;SDS011;8427;52.204;7.202;2024-02-21T06:14:53;18.15;;;6.63;;
16626;SDS011;8427;52.204;7.202;2024-02-21T06:17:22;22.23;;;6.80;;
16626;SDS011;8427;52.204;7.202;2024-02-21T06:19:51;17.67;;;6.82;;
16626;SDS011;8427;52.204;7.202;2024-02-21T06:22:19;15.57;;;6.03;;
16626;SDS011;8427;52.204;7.202;2024-02-21T06:24:50;18.00;;;6.90;;
16626;SDS011;8427;52.204;7.202;2024-02-21T06:27:20;17.33;;;6.30;;
16626;SDS011;8427;52.204;7.202;2024-02-21T06:29:51;19.73;;;6.45;;
16626;SDS011;8427;52.204;7.202;2024-02-21T06:32:20;20.67;;;7.00;;
16626;SDS011;8427;52.204;7.202;2024-02-21T06:34:48;20.03;;;7.43;;
16626;SDS011;8427;52.204;7.202;2024-02-21T06:37:17;18.88;;;7.13;;
16626;SDS011;8427;52.204;7.202;2024-02-21T06:39:46;19.92;;;6.47;;
16626;SDS011;8427;52.204;7.202;2024-02-21T06:42:16;19.93;;;6.60;;
16626;SDS011;8427;52.204;7.202;2024-02-21T06:44:45;18.55;;;6.68;;
16626;SDS011;8427;52.204;7.202;2024-02-21T06:47:13;20.00;;;6.70;;
16626;SDS011;8427;52.204;7.202;2024-02-21T06:49:42;17.10;;;6.93;;
16626;SDS011;8427;52.204;7.202;2024-02-21T06:52:11;18.92;;;7.18;;
16626;SDS011;8427;52.204;7.202;2024-02-21T06:54:43;19.70;;;6.85;;
16626;SDS011;8427;52.204;7.202;2024-02-21T06:57:12;17.15;;;6.57;;
16626;SDS011;8427;52.204;7.202;2024-02-21T06:59:42;18.10;;;7.50;;
16626;SDS011;8427;52.204;7.202;2024-02-21T07:02:11;14.95;;;6.80;;
16626;SDS011;8427;52.204;7.202;2024-02-21T07:04:40;15.25;;;6.18;;
16626;SDS011;8427;52.204;7.202;2024-02-21T07:07:10;19.42;;;6.60;;
16626;SDS011;8427;52.204;7.202;2024-02-21T07:09:39;14.30;;;6.43;;
16626;SDS011;8427;52.204;7.202;2024-02-21T07:12:09;20.15;;;7.10;;
16626;SDS011;8427;52.204;7.202;2024-02-21T07:14:37;22.40;;;7.50;;
16626;SDS011;8427;52.204;7.202;2024-02-21T07:17:08;20.92;;;8.77;;
16626;SDS011;8427;52.204;7.202;2024-02-21T07:19:37;17.73;;;7.03;;
16626;SDS011;8427;52.204;7.202;2024-02-21T07:22:05;20.17;;;8.57;;
16626;SDS011;8427;52.204;7.202;2024-02-21T07:24:34;16.80;;;6.45;;
16626;SDS011;8427;52.204;7.202;2024-02-21T07:27:04;15.13;;;6.43;;
16626;SDS011;8427;52.204;7.202;2024-02-21T07:29:33;14.68;;;6.97;;
16626;SDS011;8427;52.204;7.202;2024-02-21T07:32:05;17.17;;;7.03;;
16626;SDS011;8427;52.204;7.202;2024-02-21T07:34:36;18.20;;;8.20;;
16626;SDS011;8427;52.204;7.202;2024-02-21T07:37:04;17.83;;;6.60;;
16626;SDS011;8427;52.204;7.202;2024-02-21T07:39:35;17.00;;;6.22;;
16626;SDS011;8427;52.204;7.202;2024-02-21T07:42:07;14.23;;;6.72;;
16626;SDS011;8427;52.204;7.202;2024-02-21T07:44:36;20.83;;;6.85;;
16626;SDS011;8427;52.204;7.202;2024-02-21T07:47:05;17.42;;;6.05;;
16626;SDS011;8427;52.204;7.202;2024-02-21T07:49:42;18.90;;;6.35;;
16626;SDS011;8427;52.204;7.202;2024-02-21T07:52:12;15.15;;;6.38;;
16626;SDS011;8427;52.204;7.202;2024-02-21T07:54:41;16.30;;;5.90;;
16626;SDS011;8427;52.204;7.202;2024-02-21T07:57:10;14.32;;;5.55;;
16626;SDS011;8427;52.204;7.202;2024-02-21T07:59:39;15.77;;;5.40;;
16626;SDS011;8427;52.204;7.202;2024-02-21T08:02:08;16.63;;;5.60;;
16626;SDS011;8427;52.204;7.202;2024-02-21T08:04:37;15.95;;;5.70;;
16626;SDS011;8427;52.204;7.202;2024-02-21T08:07:22;14.25;;;5.97;;
16626;SDS011;8427;52.204;7.202;2024-02-21T08:09:51;15.27;;;5.50;;
16626;SDS011;8427;52.204;7.202;2024-02-21T08:12:20;16.30;;;5.20;;
16626;SDS011;8427;52.204;7.202;2024-02-21T08:14:49;12.75;;;4.88;;
16626;SDS011;8427;52.204;7.202;2024-02-21T08:17:17;12.43;;;5.33;;
16626;SDS011;8427;52.204;7.202;2024-02-21T08:19:46;12.07;;;5.10;;
16626;SDS011;8427;52.204;7.202;2024-02-21T08:22:16;17.05;;;5.20;;
16626;SDS011;8427;52.204;7.202;2024-02-21T08:24:46;13.40;;;5.47;;
16626;SDS011;8427;52.204;7.202;2024-02-21T08:27:15;13.32;;;5.40;;
16626;SDS011;8427;52.204;7.202;2024-02-21T08:29:44;12.57;;;4.70;;
16626;SDS011;8427;52.204;7.202;2024-02-21T08:32:13;14.38;;;5.22;;
16626;SDS011;8427;52.204;7.202;2024-02-21T08:34:42;14.90;;;5.25;;
16626;SDS011;8427;52.204;7.202;2024-02-21T08:37:10;12.93;;;4.63;;
16626;SDS011;8427;52.204;7.202;2024-02-21T08:39:39;18.58;;;5.40;;
16626;SDS011;8427;52.204;7.202;2024-02-21T08:42:09;16.98;;;5.00;;
16626;SDS011;8427;52.204;7.202;2024-02-21T08:44:39;14.00;;;4.85;;
16626;SDS011;8427;52.204;7.202;2024-02-21T08:47:09;14.63;;;5.00;;
16626;SDS011;8427;52.204;7.202;2024-02-21T08:49:38;14.20;;;4.90;;
16626;SDS011;8427;52.204;7.202;2024-02-21T08:52:06;10.45;;;4.22;;
16626;SDS011;8427;52.204;7.202;2024-02-21T08:54:35;14.02;;;4.78;;
16626;SDS011;8427;52.204;7.202;2024-02-21T08:57:04;19.83;;;4.60;;
16626;SDS011;8427;52.204;7.202;2024-02-21T08:59:34;13.10;;;4.95;;
16626;SDS011;8427;52.204;7.202;2024-02-21T09:02:03;15.40;;;4.20;;
16626;SDS011;8427;52.204;7.202;2024-02-21T09:04:34;15.23;;;5.00;;
16626;SDS011;8427;52.204;7.202;2024-02-21T09:07:03;12.23;;;4.78;;
16626;SDS011;8427;52.204;7.202;2024-02-21T09:09:32;13.25;;;5.00;;
16626;SDS011;8427;52.204;7.202;2024-02-21T09:12:01;12.07;;;4.47;;
16626;SDS011;8427;52.204;7.202;2024-02-21T09:14:32;10.30;;;4.40;;
16626;SDS011;8427;52.204;7.202;2024-02-21T09:17:05;13.13;;;4.63;;
16626;SDS011;8427;52.204;7.202;2024-02-21T09:19:34;13.07;;;4.38;;
16626;SDS011;8427;52.204;7.202;2024-02-21T09:22:03;12.27;;;4.70;;
16626;SDS011;8427;52.204;7.202;2024-02-21T09:24:32;12.90;;;4.95;;
16626;SDS011;8427;52.204;7.202;2024-02-21T09:27:01;16.15;;;5.00;;
16626;SDS011;8427;52.204;7.202;2024-02-21T09:29:30;14.00;;;5.13;;
16626;SDS011;8427;52.204;7.202;2024-02-21T09:32:01;13.43;;;4.90;;
16626;SDS011;8427;52.204;7.202;2024-02-21T09:34:30;15.40;;;5.55;;
16626;SDS011;8427;52.204;7.202;2024-02-21T09:37:01;13.52;;;5.03;;
16626;SDS011;8427;52.204;7.202;2024-02-21T09:39:29;14.00;;;5.28;;
16626;SDS011;8427;52.204;7.202;2024-02-21T09:41:59;14.27;;;5.05;;
16626;SDS011;8427;52.204;7.202;2024-02-21T09:44:36;13.10;;;5.10;;
16626;SDS011;8427;52.204;7.202;2024-02-21T09:47:09;12.27;;;5.22;;
16626;SDS011;8427;52.204;7.202;2024-02-21T09:49:40;17.52;;;6.50;;
16626;SDS011;8427;52.204;7.202;2024-02-21T09:52:12;14.10;;;5.47;;
16626;SDS011;8427;52.204;7.202;2024-02-21T09:54:43;16.15;;;5.93;;
16626;SDS011;8427;52.204;7.202;2024-02-21T09:57:12;14.45;;;5.15;;
16626;SDS011;8427;52.204;7.202;2024-02-21T09:59:41;12.05;;;5.22;;
16626;SDS011;8427;52.204;7.202;2024-02-21T10:02:13;13.68;;;5.40;;
16626;SDS011;8427;52.204;7.202;2024-02-21T10:04:42;12.07;;;4.97;;
16626;SDS011;8427;52.204;7.202;2024-02-21T10:07:11;13.23;;;5.05;;
16626;SDS011;8427;52.204;7.202;2024-02-21T10:09:41;12.80;;;5.00;;
16626;SDS011;8427;52.204;7.202;2024-02-21T10:12:12;11.00;;;5.15;;
16626;SDS011;8427;52.204;7.202;2024-02-21T10:14:42;9.35;;;4.43;;
16626;SDS011;8427;52.204;7.202;2024-02-21T10:17:16;11.25;;;4.88;;
16626;SDS011;8427;52.204;7.202;2024-02-21T10:19:46;13.27;;;4.60;;
16626;SDS011;8427;52.204;7.202;2024-02-21T10:22:15;12.85;;;4.70;;
16626;SDS011;8427;52.204;7.202;2024-02-21T10:24:48;13.43;;;5.07;;
16626;SDS011;8427;52.204;7.202;2024-02-21T10:27:16;11.93;;;4.80;;
16626;SDS011;8427;52.204;7.202;2024-02-21T10:29:48;14.82;;;5.40;;
16626;SDS011;8427;52.204;7.202;2024-02-21T10:32:19;10.45;;;5.45;;
16626;SDS011;8427;52.204;7.202;2024-02-21T10:34:49;19.35;;;9.50;;
16626;SDS011;8427;52.204;7.202;2024-02-21T10:37:28;12.25;;;6.50;;
16626;SDS011;8427;52.204;7.202;2024-02-21T10:39:56;15.65;;;7.78;;
16626;SDS011;8427;52.204;7.202;2024-02-21T10:42:27;24.65;;;11.02;;
16626;SDS011;8427;52.204;7.202;2024-02-21T10:45:00;15.57;;;6.45;;
16626;SDS011;8427;52.204;7.202;2024-02-21T10:47:32;14.20;;;5.75;;
16626;SDS011;8427;52.204;7.202;2024-02-21T10:50:05;14.93;;;5.70;;
16626;SDS011;8427;52.204;7.202;2024-02-21T10:52:41;18.67;;;8.27;;
16626;SDS011;8427;52.204;7.202;2024-02-21T10:55:19;14.55;;;5.45;;
16626;SDS011;8427;52.204;7.202;2024-02-21T10:57:50;11.70;;;4.80;;
16626;SDS011;8427;52.204;7.202;2024-02-21T11:00:19;12.90;;;5.63;;
16626;SDS011;8427;52.204;7.202;2024-02-21T11:02:53;9.52;;;4.68;;
16626;SDS011;8427;52.204;7.202;2024-02-21T11:05:22;10.65;;;4.80;;
16626;SDS011;8427;52.204;7.202;2024-02-21T11:07:52;9.00;;;4.78;;
16626;SDS011;8427;52.204;7.202;2024-02-21T11:10:22;9.88;;;4.65;;
16626;SDS011;8427;52.204;7.202;2024-02-21T11:12:52;9.50;;;3.97;;
16626;SDS011;8427;52.204;7.202;2024-02-21T11:15:24;10.05;;;3.95;;
16626;SDS011;8427;52.204;7.202;2024-02-21T11:17:55;10.25;;;4.72;;
16626;SDS011;8427;52.204;7.202;2024-02-21T11:20:34;10.05;;;4.10;;
16626;SDS011;8427;52.204;7.202;2024-02-21T11:23:03;10.40;;;4.65;;
16626;SDS011;8427;52.204;7.202;2024-02-21T11:28:02;7.03;;;3.25;;
16626;SDS011;8427;52.204;7.202;2024-02-21T11:30:31;12.13;;;3.75;;
16626;SDS011;8427;52.204;7.202;2024-02-21T11:33:02;12.25;;;3.72;;
16626;SDS011;8427;52.204;7.202;2024-02-21T11:35:32;9.88;;;3.90;;
16626;SDS011;8427;52.204;7.202;2024-02-21T11:38:08;9.35;;;3.60;;
16626;SDS011;8427;52.204;7.202;2024-02-21T11:40:40;8.25;;;3.25;;
16626;SDS011;8427;52.204;7.202;2024-02-21T11:43:09;8.48;;;3.00;;
16626;SDS011;8427;52.204;7.202;2024-02-21T11:45:38;14.13;;;5.22;;
16626;SDS011;8427;52.204;7.202;2024-02-21T11:48:08;7.22;;;4.55;;
16626;SDS011;8427;52.204;7.202;2024-02-21T11:50:37;11.13;;;5.55;;
16626;SDS011;8427;52.204;7.202;2024-02-21T11:53:06;9.32;;;4.35;;
16626;SDS011;8427;52.204;7.202;2024-02-21T11:55:36;10.40;;;4.20;;
16626;SDS011;8427;52.204;7.202;2024-02-21T11:58:04;16.48;;;6.15;;
16626;SDS011;8427;52.204;7.202;2024-02-21T12:00:33;13.20;;;4.97;;
16626;SDS011;8427;52.204;7.202;2024-02-21T12:05:33;7.30;;;3.60;;
16626;SDS011;8427;52.204;7.202;2024-02-21T12:08:02;12.57;;;5.10;;
16626;SDS011;8427;52.204;7.202;2024-02-21T12:10:32;9.57;;;3.88;;
16626;SDS011;8427;52.204;7.202;2024-02-21T12:13:06;8.50;;;3.38;;
16626;SDS011;8427;52.204;7.202;2024-02-21T12:15:35;9.48;;;4.57;;
16626;SDS011;8427;52.204;7.202;2024-02-21T12:18:04;10.68;;;6.10;;
16626;SDS011;8427;52.204;7.202;2024-02-21T12:20:34;9.10;;;3.72;;
16626;SDS011;8427;52.204;7.202;2024-02-21T12:23:04;8.23;;;3.80;;
16626;SDS011;8427;52.204;7.202;2024-02-21T12:25:38;6.63;;;3.50;;
16626;SDS011;8427;52.204;7.202;2024-02-21T12:28:07;7.25;;;3.78;;
16626;SDS011;8427;52.204;7.202;2024-02-21T12:30:36;11.00;;;5.63;;
16626;SDS011;8427;52.204;7.202;2024-02-21T12:33:07;9.15;;;3.80;;
16626;SDS011;8427;52.204;7.202;2024-02-21T12:35:37;8.40;;;3.30;;
16626;SDS011;8427;52.204;7.202;2024-02-21T12:38:06;6.80;;;3.22;;
16626;SDS011;8427;52.204;7.202;2024-02-21T12:40:34;6.90;;;3.38;;
16626;SDS011;8427;52.204;7.202;2024-02-21T12:43:03;8.32;;;3.10;;
16626;SDS011;8427;52.204;7.202;2024-02-21T12:45:32;7.68;;;3.25;;
16626;SDS011;8427;52.204;7.202;2024-02-21T12:48:01;7.55;;;3.17;;
16626;SDS011;8427;52.204;7.202;2024-02-21T12:50:31;9.32;;;3.58;;
16626;SDS011;8427;52.204;7.202;2024-02-21T12:53:01;9.98;;;4.50;;
16626;SDS011;8427;52.204;7.202;2024-02-21T12:55:42;7.88;;;4.70;;
16626;SDS011;8427;52.204;7.202;2024-02-21T12:58:11;10.18;;;4.13;;
16626;SDS011;8427;52.204;7.202;2024-02-21T13:00:40;13.15;;;4.15;;
16626;SDS011;8427;52.204;7.202;2024-02-21T13:03:09;13.05;;;4.07;;
16626;SDS011;8427;52.204;7.202;2024-02-21T13:05:38;9.05;;;4.82;;
16626;SDS011;8427;52.204;7.202;2024-02-21T13:08:08;10.07;;;6.57;;
16626;SDS011;8427;52.204;7.202;2024-02-21T13:10:38;10.82;;;6.63;;
16626;SDS011;8427;52.204;7.202;2024-02-21T13:13:07;10.00;;;4.78;;
16626;SDS011;8427;52.204;7.202;2024-02-21T13:15:36;10.18;;;6.10;;
16626;SDS011;8427;52.204;7.202;2024-02-21T13:18:09;9.68;;;3.72;;
16626;SDS011;8427;52.204;7.202;2024-02-21T13:20:38;11.90;;;5.57;;
16626;SDS011;8427;52.204;7.202;2024-02-21T13:23:08;12.20;;;4.40;;
16626;SDS011;8427;52.204;7.202;2024-02-21T13:25:37;8.00;;;4.60;;
16626;SDS011;8427;52.204;7.202;2024-02-21T13:28:06;11.95;;;4.70;;
16626;SDS011;8427;52.204;7.202;2024-02-21T13:30:36;9.77;;;4.22;;
16626;SDS011;8427;52.204;7.202;2024-02-21T13:33:05;10.68;;;5.20;;
16626;SDS011;8427;52.204;7.202;2024-02-21T13:35:37;10.60;;;4.78;;
16626;SDS011;8427;52.204;7.202;2024-02-21T13:38:07;10.80;;;5.40;;
16626;SDS011;8427;52.204;7.202;2024-02-21T13:40:36;9.93;;;4.72;;
16626;SDS011;8427;52.204;7.202;2024-02-21T13:43:05;8.88;;;4.75;;
16626;SDS011;8427;52.204;7.202;2024-02-21T13:45:37;11.20;;;4.38;;
16626;SDS011;8427;52.204;7.202;2024-02-21T13:48:08;9.73;;;4.70;;
16626;SDS011;8427;52.204;7.202;2024-02-21T13:50:38;23.52;;;10.70;;
16626;SDS011;8427;52.204;7.202;2024-02-21T13:53:11;9.65;;;4.60;;
16626;SDS011;8427;52.204;7.202;2024-02-21T13:55:40;12.18;;;4.63;;
16626;SDS011;8427;52.204;7.202;2024-02-21T13:58:10;9.77;;;4.32;;
16626;SDS011;8427;52.204;7.202;2024-02-21T14:00:39;10.13;;;4.30;;
16626;SDS011;8427;52.204;7.202;2024-02-21T14:03:08;14.65;;;6.05;;
16626;SDS011;8427;52.204;7.202;2024-02-21T14:05:36;8.35;;;4.13;;
16626;SDS011;8427;52.204;7.202;2024-02-21T14:08:09;8.75;;;4.03;;
16626;SDS011;8427;52.204;7.202;2024-02-21T14:10:39;9.75;;;3.90;;
16626;SDS011;8427;52.204;7.202;2024-02-21T14:13:08;10.52;;;3.90;;
16626;SDS011;8427;52.204;7.202;2024-02-21T14:15:38;10.68;;;4.10;;
16626;SDS011;8427;52.204;7.202;2024-02-21T14:18:07;9.75;;;4.00;;
16626;SDS011;8427;52.204;7.202;2024-02-21T14:20:37;9.55;;;3.75;;
16626;SDS011;8427;52.204;7.202;2024-02-21T14:23:04;10.75;;;3.60;;
16626;SDS011;8427;52.204;7.202;2024-02-21T14:25:33;9.63;;;3.70;;
16626;SDS011;8427;52.204;7.202;2024-02-21T14:28:04;7.78;;;3.90;;
16626;SDS011;8427;52.204;7.202;2024-02-21T14:30:33;9.95;;;3.30;;
16626;SDS011;8427;52.204;7.202;2024-02-21T14:33:01;9.35;;;3.50;;
16626;SDS011;8427;52.204;7.202;2024-02-21T14:38:01;10.27;;;3.33;;
16626;SDS011;8427;52.204;7.202;2024-02-21T14:40:30;9.88;;;3.95;;
16626;SDS011;8427;52.204;7.202;2024-02-21T14:43:01;17.20;;;8.02;;
16626;SDS011;8427;52.204;7.202;2024-02-21T14:45:31;16.33;;;7.20;;
16626;SDS011;8427;52.204;7.202;2024-02-21T14:48:00;12.90;;;6.13;;
16626;SDS011;8427;52.204;7.202;2024-02-21T14:50:30;11.15;;;5.60;;
16626;SDS011;8427;52.204;7.202;2024-02-21T14:52:59;17.75;;;6.70;;
16626;SDS011;8427;52.204;7.202;2024-02-21T14:55:28;11.52;;;5.80;;
16626;SDS011;8427;52.204;7.202;2024-02-21T14:57:57;14.75;;;7.55;;
16626;SDS011;8427;52.204;7.202;2024-02-21T15:00:26;11.15;;;6.05;;
16626;SDS011;8427;52.204;7.202;2024-02-21T15:02:58;18.90;;;11.60;;
16626;SDS011;8427;52.204;7.202;2024-02-21T15:05:27;14.77;;;8.10;;
16626;SDS011;8427;52.204;7.202;2024-02-21T15:07:56;13.73;;;10.95;;
16626;SDS011;8427;52.204;7.202;2024-02-21T15:10:25;12.38;;;5.85;;
16626;SDS011;8427;52.204;7.202;2024-02-21T15:12:55;12.30;;;6.00;;
16626;SDS011;8427;52.204;7.202;2024-02-21T15:15:24;11.88;;;6.13;;
16626;SDS011;8427;52.204;7.202;2024-02-21T15:17:53;10.75;;;6.35;;
16626;SDS011;8427;52.204;7.202;2024-02-21T15:20:23;11.75;;;5.40;;
16626;SDS011;8427;52.204;7.202;2024-02-21T15:22:52;8.00;;;3.70;;
16626;SDS011;8427;52.204;7.202;2024-02-21T15:25:22;9.30;;;4.10;;
16626;SDS011;8427;52.204;7.202;2024-02-21T15:27:52;9.45;;;4.20;;